sensor_id;sensor_type;location;lat;lon;timestamp;P1;durP1;ratioP1;P2;durP2;ratioP2
72439;SDS011;60446;50.752;4.352;2023-10-08T00:01:28;7.10;;;2.73;;
72439;SDS011;60446;50.752;4.352;2023-10-08T00:04:00;7.00;;;2.50;;
72439;SDS011;60446;50.752;4.352;2023-10-08T00:06:31;6.50;;;2.88;;
72439;SDS011;60446;50.752;4.352;2023-10-08T00:08:59;7.90;;;3.33;;
72439;SDS011;60446;50.752;4.352;2023-10-08T00:11:27;7.50;;;2.80;;
72439;SDS011;60446;50.752;4.352;2023-10-08T00:13:58;8.43;;;2.80;;
72439;SDS011;60446;50.752;4.352;2023-10-08T00:16:27;6.00;;;2.38;;
72439;SDS011;60446;50.752;4.352;2023-10-08T00:18:55;8.23;;;2.55;;
72439;SDS011;60446;50.752;4.352;2023-10-08T00:21:26;7.43;;;3.08;;
72439;SDS011;60446;50.752;4.352;2023-10-08T00:23:54;6.78;;;2.70;;
72439;SDS011;60446;50.752;4.352;2023-10-08T00:26:26;6.13;;;2.67;;
72439;SDS011;60446;50.752;4.352;2023-10-08T00:28:56;6.43;;;2.80;;
72439;SDS011;60446;50.752;4.352;2023-10-08T00:31:26;7.57;;;3.42;;
72439;SDS011;60446;50.752;4.352;2023-10-08T00:33:58;6.68;;;2.80;;
72439;SDS011;60446;50.752;4.352;2023-10-08T00:36:25;7.65;;;3.08;;
72439;SDS011;60446;50.752;4.352;2023-10-08T00:38:52;6.57;;;2.83;;
72439;SDS011;60446;50.752;4.352;2023-10-08T00:41:26;8.68;;;3.20;;
72439;SDS011;60446;50.752;4.352;2023-10-08T00:43:59;6.55;;;2.72;;
72439;SDS011;60446;50.752;4.352;2023-10-08T00:46:28;9.05;;;2.85;;
72439;SDS011;60446;50.752;4.352;2023-10-08T00:48:59;8.45;;;3.33;;
72439;SDS011;60446;50.752;4.352;2023-10-08T00:51:47;8.10;;;2.77;;
72439;SDS011;60446;50.752;4.352;2023-10-08T00:54:27;8.82;;;2.90;;
72439;SDS011;60446;50.752;4.352;2023-10-08T00:56:55;6.45;;;2.65;;
72439;SDS011;60446;50.752;4.352;2023-10-08T00:59:25;8.75;;;3.22;;
72439;SDS011;60446;50.752;4.352;2023-10-08T01:01:52;6.72;;;3.28;;
72439;SDS011;60446;50.752;4.352;2023-10-08T01:04:25;6.77;;;2.57;;
72439;SDS011;60446;50.752;4.352;2023-10-08T01:06:54;7.55;;;2.70;;
72439;SDS011;60446;50.752;4.352;2023-10-08T01:09:28;6.95;;;2.55;;
72439;SDS011;60446;50.752;4.352;2023-10-08T01:12:08;6.95;;;2.95;;
72439;SDS011;60446;50.752;4.352;2023-10-08T01:14:54;7.40;;;2.78;;
72439;SDS011;60446;50.752;4.352;2023-10-08T01:17:22;6.47;;;2.33;;
72439;SDS011;60446;50.752;4.352;2023-10-08T01:19:58;7.78;;;3.00;;
72439;SDS011;60446;50.752;4.352;2023-10-08T01:22:57;6.47;;;2.47;;
72439;SDS011;60446;50.752;4.352;2023-10-08T01:25:25;7.30;;;2.80;;
72439;SDS011;60446;50.752;4.352;2023-10-08T01:27:56;7.85;;;3.58;;
72439;SDS011;60446;50.752;4.352;2023-10-08T01:30:44;6.43;;;3.17;;
72439;SDS011;60446;50.752;4.352;2023-10-08T01:33:14;6.38;;;2.78;;
72439;SDS011;60446;50.752;4.352;2023-10-08T01:35:44;8.82;;;3.08;;
72439;SDS011;60446;50.752;4.352;2023-10-08T01:38:11;8.05;;;3.13;;
72439;SDS011;60446;50.752;4.352;2023-10-08T01:40:49;8.10;;;3.00;;
72439;SDS011;60446;50.752;4.352;2023-10-08T01:43:17;7.57;;;3.00;;
72439;SDS011;60446;50.752;4.352;2023-10-08T01:45:46;7.18;;;2.85;;
72439;SDS011;60446;50.752;4.352;2023-10-08T01:48:18;8.65;;;2.72;;
72439;SDS011;60446;50.752;4.352;2023-10-08T01:50:56;9.55;;;3.03;;
72439;SDS011;60446;50.752;4.352;2023-10-08T01:53:33;5.90;;;1.95;;
72439;SDS011;60446;50.752;4.352;2023-10-08T01:56:00;8.30;;;2.63;;
72439;SDS011;60446;50.752;4.352;2023-10-08T01:58:28;6.93;;;2.25;;
72439;SDS011;60446;50.752;4.352;2023-10-08T02:00:55;6.35;;;2.53;;
72439;SDS011;60446;50.752;4.352;2023-10-08T02:03:26;8.00;;;2.85;;
72439;SDS011;60446;50.752;4.352;2023-10-08T02:05:57;6.35;;;2.40;;
72439;SDS011;60446;50.752;4.352;2023-10-08T02:08:26;7.40;;;2.60;;
72439;SDS011;60446;50.752;4.352;2023-10-08T02:10:53;10.93;;;3.38;;
72439;SDS011;60446;50.752;4.352;2023-10-08T02:13:20;7.20;;;2.65;;
72439;SDS011;60446;50.752;4.352;2023-10-08T02:15:51;8.27;;;2.53;;
72439;SDS011;60446;50.752;4.352;2023-10-08T02:18:19;9.05;;;3.30;;
72439;SDS011;60446;50.752;4.352;2023-10-08T02:20:50;7.20;;;2.83;;
72439;SDS011;60446;50.752;4.352;2023-10-08T02:23:18;9.82;;;3.20;;
72439;SDS011;60446;50.752;4.352;2023-10-08T02:25:45;6.97;;;2.90;;
72439;SDS011;60446;50.752;4.352;2023-10-08T02:28:14;7.38;;;2.67;;
72439;SDS011;60446;50.752;4.352;2023-10-08T02:30:42;7.15;;;2.85;;
72439;SDS011;60446;50.752;4.352;2023-10-08T02:33:10;6.83;;;2.67;;
72439;SDS011;60446;50.752;4.352;2023-10-08T02:35:45;6.28;;;2.65;;
72439;SDS011;60446;50.752;4.352;2023-10-08T02:38:14;7.53;;;2.80;;
72439;SDS011;60446;50.752;4.352;2023-10-08T02:40:44;7.93;;;2.70;;
72439;SDS011;60446;50.752;4.352;2023-10-08T02:43:15;6.88;;;2.92;;
72439;SDS011;60446;50.752;4.352;2023-10-08T02:45:43;6.40;;;2.97;;
72439;SDS011;60446;50.752;4.352;2023-10-08T02:48:16;5.80;;;2.35;;
72439;SDS011;60446;50.752;4.352;2023-10-08T02:50:44;9.10;;;3.10;;
72439;SDS011;60446;50.752;4.352;2023-10-08T02:53:12;8.43;;;2.88;;
72439;SDS011;60446;50.752;4.352;2023-10-08T02:55:50;7.18;;;3.20;;
72439;SDS011;60446;50.752;4.352;2023-10-08T02:58:17;8.00;;;3.13;;
72439;SDS011;60446;50.752;4.352;2023-10-08T03:00:48;8.60;;;3.10;;
72439;SDS011;60446;50.752;4.352;2023-10-08T03:03:16;9.05;;;3.13;;
72439;SDS011;60446;50.752;4.352;2023-10-08T03:05:47;6.43;;;3.20;;
72439;SDS011;60446;50.752;4.352;2023-10-08T03:08:18;7.53;;;2.70;;
72439;SDS011;60446;50.752;4.352;2023-10-08T03:10:48;9.23;;;3.57;;
72439;SDS011;60446;50.752;4.352;2023-10-08T03:13:23;8.13;;;2.97;;
72439;SDS011;60446;50.752;4.352;2023-10-08T03:15:52;7.18;;;3.20;;
72439;SDS011;60446;50.752;4.352;2023-10-08T03:18:29;6.93;;;3.25;;
72439;SDS011;60446;50.752;4.352;2023-10-08T03:21:04;7.75;;;3.35;;
72439;SDS011;60446;50.752;4.352;2023-10-08T03:23:50;9.13;;;3.93;;
72439;SDS011;60446;50.752;4.352;2023-10-08T03:26:19;8.60;;;3.97;;
72439;SDS011;60446;50.752;4.352;2023-10-08T03:29:00;7.07;;;2.95;;
72439;SDS011;60446;50.752;4.352;2023-10-08T03:31:35;8.20;;;3.10;;
72439;SDS011;60446;50.752;4.352;2023-10-08T03:34:18;8.38;;;2.80;;
72439;SDS011;60446;50.752;4.352;2023-10-08T03:36:46;6.50;;;2.90;;
72439;SDS011;60446;50.752;4.352;2023-10-08T03:39:17;9.48;;;3.60;;
72439;SDS011;60446;50.752;4.352;2023-10-08T03:41:47;8.68;;;2.95;;
72439;SDS011;60446;50.752;4.352;2023-10-08T03:44:36;10.02;;;3.03;;
72439;SDS011;60446;50.752;4.352;2023-10-08T03:47:04;7.57;;;2.45;;
72439;SDS011;60446;50.752;4.352;2023-10-08T03:49:38;6.87;;;2.50;;
72439;SDS011;60446;50.752;4.352;2023-10-08T03:52:12;10.00;;;3.05;;
72439;SDS011;60446;50.752;4.352;2023-10-08T03:54:39;9.80;;;2.53;;
72439;SDS011;60446;50.752;4.352;2023-10-08T03:57:14;6.90;;;3.03;;
72439;SDS011;60446;50.752;4.352;2023-10-08T03:59:51;8.27;;;2.65;;
72439;SDS011;60446;50.752;4.352;2023-10-08T04:02:25;8.60;;;3.50;;
72439;SDS011;60446;50.752;4.352;2023-10-08T04:05:13;6.28;;;2.90;;
72439;SDS011;60446;50.752;4.352;2023-10-08T04:07:46;7.20;;;3.15;;
72439;SDS011;60446;50.752;4.352;2023-10-08T04:10:26;8.68;;;3.03;;
72439;SDS011;60446;50.752;4.352;2023-10-08T04:13:16;9.80;;;5.35;;
72439;SDS011;60446;50.752;4.352;2023-10-08T04:15:43;9.70;;;3.90;;
72439;SDS011;60446;50.752;4.352;2023-10-08T04:18:10;8.30;;;3.75;;
72439;SDS011;60446;50.752;4.352;2023-10-08T04:20:40;7.38;;;3.60;;
72439;SDS011;60446;50.752;4.352;2023-10-08T04:23:26;8.15;;;3.17;;
72439;SDS011;60446;50.752;4.352;2023-10-08T04:25:55;7.90;;;3.25;;
72439;SDS011;60446;50.752;4.352;2023-10-08T04:28:23;10.90;;;3.30;;
72439;SDS011;60446;50.752;4.352;2023-10-08T04:30:55;6.55;;;2.95;;
72439;SDS011;60446;50.752;4.352;2023-10-08T04:33:28;7.38;;;3.10;;
72439;SDS011;60446;50.752;4.352;2023-10-08T04:36:00;7.55;;;2.92;;
72439;SDS011;60446;50.752;4.352;2023-10-08T04:38:28;8.90;;;3.40;;
72439;SDS011;60446;50.752;4.352;2023-10-08T04:40:57;7.67;;;2.80;;
72439;SDS011;60446;50.752;4.352;2023-10-08T04:43:29;9.05;;;3.38;;
72439;SDS011;60446;50.752;4.352;2023-10-08T04:45:59;8.88;;;3.58;;
72439;SDS011;60446;50.752;4.352;2023-10-08T04:48:46;8.07;;;2.90;;
72439;SDS011;60446;50.752;4.352;2023-10-08T04:51:13;7.70;;;3.38;;
72439;SDS011;60446;50.752;4.352;2023-10-08T04:53:40;8.70;;;2.83;;
72439;SDS011;60446;50.752;4.352;2023-10-08T04:56:12;8.43;;;3.05;;
72439;SDS011;60446;50.752;4.352;2023-10-08T04:58:40;7.13;;;3.17;;
72439;SDS011;60446;50.752;4.352;2023-10-08T05:01:08;8.20;;;3.20;;
72439;SDS011;60446;50.752;4.352;2023-10-08T05:03:49;7.32;;;3.17;;
72439;SDS011;60446;50.752;4.352;2023-10-08T05:06:41;8.47;;;3.37;;
72439;SDS011;60446;50.752;4.352;2023-10-08T05:09:27;8.55;;;3.50;;
72439;SDS011;60446;50.752;4.352;2023-10-08T05:12:11;6.72;;;2.90;;
72439;SDS011;60446;50.752;4.352;2023-10-08T05:14:57;8.48;;;3.03;;
72439;SDS011;60446;50.752;4.352;2023-10-08T05:17:47;7.97;;;3.20;;
72439;SDS011;60446;50.752;4.352;2023-10-08T05:20:18;12.57;;;3.60;;
72439;SDS011;60446;50.752;4.352;2023-10-08T05:23:17;9.65;;;3.25;;
72439;SDS011;60446;50.752;4.352;2023-10-08T05:25:52;7.68;;;3.47;;
72439;SDS011;60446;50.752;4.352;2023-10-08T05:28:36;8.82;;;3.30;;
72439;SDS011;60446;50.752;4.352;2023-10-08T05:31:23;7.55;;;3.15;;
72439;SDS011;60446;50.752;4.352;2023-10-08T05:34:13;8.23;;;3.00;;
72439;SDS011;60446;50.752;4.352;2023-10-08T05:36:50;8.32;;;3.13;;
72439;SDS011;60446;50.752;4.352;2023-10-08T05:39:38;8.32;;;3.50;;
72439;SDS011;60446;50.752;4.352;2023-10-08T05:42:05;9.02;;;2.88;;
72439;SDS011;60446;50.752;4.352;2023-10-08T05:44:43;8.60;;;3.15;;
72439;SDS011;60446;50.752;4.352;2023-10-08T05:47:30;9.10;;;3.07;;
72439;SDS011;60446;50.752;4.352;2023-10-08T05:50:00;6.43;;;2.47;;
72439;SDS011;60446;50.752;4.352;2023-10-08T05:52:38;8.18;;;3.78;;
72439;SDS011;60446;50.752;4.352;2023-10-08T05:55:27;7.18;;;3.20;;
72439;SDS011;60446;50.752;4.352;2023-10-08T05:58:05;8.32;;;2.95;;
72439;SDS011;60446;50.752;4.352;2023-10-08T06:00:46;7.10;;;3.13;;
72439;SDS011;60446;50.752;4.352;2023-10-08T06:03:17;8.48;;;3.50;;
72439;SDS011;60446;50.752;4.352;2023-10-08T06:06:05;7.78;;;3.17;;
72439;SDS011;60446;50.752;4.352;2023-10-08T06:08:54;6.65;;;2.97;;
72439;SDS011;60446;50.752;4.352;2023-10-08T06:11:37;9.90;;;3.38;;
72439;SDS011;60446;50.752;4.352;2023-10-08T06:14:11;6.73;;;2.90;;
72439;SDS011;60446;50.752;4.352;2023-10-08T06:16:57;8.82;;;3.33;;
72439;SDS011;60446;50.752;4.352;2023-10-08T06:19:43;7.63;;;2.78;;
72439;SDS011;60446;50.752;4.352;2023-10-08T06:22:10;12.32;;;3.75;;
72439;SDS011;60446;50.752;4.352;2023-10-08T06:24:37;8.70;;;3.13;;
72439;SDS011;60446;50.752;4.352;2023-10-08T06:27:05;8.57;;;3.23;;
72439;SDS011;60446;50.752;4.352;2023-10-08T06:29:33;8.70;;;3.22;;
72439;SDS011;60446;50.752;4.352;2023-10-08T06:32:00;6.75;;;3.20;;
72439;SDS011;60446;50.752;4.352;2023-10-08T06:34:28;6.60;;;3.42;;
72439;SDS011;60446;50.752;4.352;2023-10-08T06:36:58;7.28;;;3.10;;
72439;SDS011;60446;50.752;4.352;2023-10-08T06:39:26;8.13;;;3.27;;
72439;SDS011;60446;50.752;4.352;2023-10-08T06:41:59;7.88;;;2.92;;
72439;SDS011;60446;50.752;4.352;2023-10-08T06:44:30;7.97;;;3.28;;
72439;SDS011;60446;50.752;4.352;2023-10-08T06:46:57;8.70;;;3.33;;
72439;SDS011;60446;50.752;4.352;2023-10-08T06:49:24;9.95;;;3.70;;
72439;SDS011;60446;50.752;4.352;2023-10-08T06:51:52;10.30;;;3.33;;
72439;SDS011;60446;50.752;4.352;2023-10-08T06:54:20;8.00;;;3.53;;
72439;SDS011;60446;50.752;4.352;2023-10-08T06:56:49;7.97;;;3.22;;
72439;SDS011;60446;50.752;4.352;2023-10-08T06:59:19;8.02;;;3.38;;
72439;SDS011;60446;50.752;4.352;2023-10-08T07:01:50;9.50;;;3.67;;
72439;SDS011;60446;50.752;4.352;2023-10-08T07:04:18;9.17;;;4.27;;
72439;SDS011;60446;50.752;4.352;2023-10-08T07:06:49;9.63;;;3.42;;
72439;SDS011;60446;50.752;4.352;2023-10-08T07:09:17;8.45;;;3.42;;
72439;SDS011;60446;50.752;4.352;2023-10-08T07:11:57;9.65;;;3.60;;
72439;SDS011;60446;50.752;4.352;2023-10-08T07:14:32;11.55;;;2.92;;
72439;SDS011;60446;50.752;4.352;2023-10-08T07:17:00;11.47;;;3.40;;
72439;SDS011;60446;50.752;4.352;2023-10-08T07:19:29;8.52;;;3.70;;
72439;SDS011;60446;50.752;4.352;2023-10-08T07:22:05;7.50;;;2.72;;
72439;SDS011;60446;50.752;4.352;2023-10-08T07:24:55;8.05;;;3.53;;
72439;SDS011;60446;50.752;4.352;2023-10-08T07:27:25;9.57;;;3.65;;
72439;SDS011;60446;50.752;4.352;2023-10-08T07:29:58;8.63;;;3.73;;
72439;SDS011;60446;50.752;4.352;2023-10-08T07:32:29;7.97;;;3.03;;
72439;SDS011;60446;50.752;4.352;2023-10-08T07:34:57;11.80;;;4.07;;
72439;SDS011;60446;50.752;4.352;2023-10-08T07:37:41;9.02;;;4.35;;
72439;SDS011;60446;50.752;4.352;2023-10-08T07:40:09;9.55;;;4.32;;
72439;SDS011;60446;50.752;4.352;2023-10-08T07:42:39;10.93;;;4.40;;
72439;SDS011;60446;50.752;4.352;2023-10-08T07:45:07;10.05;;;4.07;;
72439;SDS011;60446;50.752;4.352;2023-10-08T07:47:35;9.35;;;4.63;;
72439;SDS011;60446;50.752;4.352;2023-10-08T07:50:03;8.20;;;3.90;;
72439;SDS011;60446;50.752;4.352;2023-10-08T07:52:38;8.65;;;3.70;;
72439;SDS011;60446;50.752;4.352;2023-10-08T07:55:11;8.60;;;3.90;;
72439;SDS011;60446;50.752;4.352;2023-10-08T07:57:45;9.07;;;4.25;;
72439;SDS011;60446;50.752;4.352;2023-10-08T08:00:12;10.18;;;3.85;;
72439;SDS011;60446;50.752;4.352;2023-10-08T08:02:50;9.63;;;4.30;;
72439;SDS011;60446;50.752;4.352;2023-10-08T08:05:19;9.23;;;3.92;;
72439;SDS011;60446;50.752;4.352;2023-10-08T08:07:47;8.43;;;3.63;;
72439;SDS011;60446;50.752;4.352;2023-10-08T08:10:18;9.45;;;3.63;;
72439;SDS011;60446;50.752;4.352;2023-10-08T08:12:49;9.68;;;3.78;;
72439;SDS011;60446;50.752;4.352;2023-10-08T08:15:21;11.00;;;4.15;;
72439;SDS011;60446;50.752;4.352;2023-10-08T08:17:49;11.50;;;4.38;;
72439;SDS011;60446;50.752;4.352;2023-10-08T08:20:16;12.83;;;3.97;;
72439;SDS011;60446;50.752;4.352;2023-10-08T08:22:44;10.60;;;4.38;;
72439;SDS011;60446;50.752;4.352;2023-10-08T08:25:21;9.13;;;3.10;;
72439;SDS011;60446;50.752;4.352;2023-10-08T08:28:01;11.93;;;4.18;;
72439;SDS011;60446;50.752;4.352;2023-10-08T08:30:32;13.43;;;3.97;;
72439;SDS011;60446;50.752;4.352;2023-10-08T08:33:03;8.73;;;3.40;;
72439;SDS011;60446;50.752;4.352;2023-10-08T08:35:37;8.95;;;3.83;;
72439;SDS011;60446;50.752;4.352;2023-10-08T08:38:05;11.65;;;4.40;;
72439;SDS011;60446;50.752;4.352;2023-10-08T08:40:35;9.05;;;4.10;;
72439;SDS011;60446;50.752;4.352;2023-10-08T08:43:02;8.80;;;3.83;;
72439;SDS011;60446;50.752;4.352;2023-10-08T08:45:32;10.57;;;3.87;;
72439;SDS011;60446;50.752;4.352;2023-10-08T08:48:02;9.05;;;3.80;;
72439;SDS011;60446;50.752;4.352;2023-10-08T08:50:31;10.07;;;4.22;;
72439;SDS011;60446;50.752;4.352;2023-10-08T08:53:00;10.18;;;4.40;;
72439;SDS011;60446;50.752;4.352;2023-10-08T08:55:29;8.18;;;3.67;;
72439;SDS011;60446;50.752;4.352;2023-10-08T08:57:59;11.17;;;4.07;;
72439;SDS011;60446;50.752;4.352;2023-10-08T09:00:28;9.65;;;4.18;;
72439;SDS011;60446;50.752;4.352;2023-10-08T09:02:57;9.90;;;4.35;;
72439;SDS011;60446;50.752;4.352;2023-10-08T09:05:25;11.05;;;4.00;;
72439;SDS011;60446;50.752;4.352;2023-10-08T09:07:57;8.65;;;3.85;;
72439;SDS011;60446;50.752;4.352;2023-10-08T09:10:31;10.60;;;4.00;;
72439;SDS011;60446;50.752;4.352;2023-10-08T09:13:04;12.23;;;3.80;;
72439;SDS011;60446;50.752;4.352;2023-10-08T09:15:34;10.82;;;4.47;;
72439;SDS011;60446;50.752;4.352;2023-10-08T09:18:03;10.88;;;3.72;;
72439;SDS011;60446;50.752;4.352;2023-10-08T09:20:31;11.18;;;4.05;;
72439;SDS011;60446;50.752;4.352;2023-10-08T09:23:14;12.93;;;3.50;;
72439;SDS011;60446;50.752;4.352;2023-10-08T09:25:48;7.97;;;3.45;;
72439;SDS011;60446;50.752;4.352;2023-10-08T09:28:30;11.30;;;4.32;;
72439;SDS011;60446;50.752;4.352;2023-10-08T09:31:01;12.93;;;4.45;;
72439;SDS011;60446;50.752;4.352;2023-10-08T09:33:32;9.52;;;4.10;;
72439;SDS011;60446;50.752;4.352;2023-10-08T09:35:59;9.97;;;3.93;;
72439;SDS011;60446;50.752;4.352;2023-10-08T09:38:33;10.65;;;4.22;;
72439;SDS011;60446;50.752;4.352;2023-10-08T09:41:01;9.15;;;4.20;;
72439;SDS011;60446;50.752;4.352;2023-10-08T09:43:29;13.73;;;5.07;;
72439;SDS011;60446;50.752;4.352;2023-10-08T09:46:41;16.08;;;4.45;;
72439;SDS011;60446;50.752;4.352;2023-10-08T09:48:55;12.50;;;4.90;;
72439;SDS011;60446;50.752;4.352;2023-10-08T09:51:30;11.32;;;5.35;;
72439;SDS011;60446;50.752;4.352;2023-10-08T09:54:10;10.20;;;3.92;;
72439;SDS011;60446;50.752;4.352;2023-10-08T09:56:42;11.32;;;4.97;;
72439;SDS011;60446;50.752;4.352;2023-10-08T09:59:11;13.13;;;4.55;;
72439;SDS011;60446;50.752;4.352;2023-10-08T10:01:41;8.80;;;4.23;;
72439;SDS011;60446;50.752;4.352;2023-10-08T10:04:22;8.70;;;4.40;;
72439;SDS011;60446;50.752;4.352;2023-10-08T10:06:58;10.82;;;4.40;;
72439;SDS011;60446;50.752;4.352;2023-10-08T10:09:35;9.50;;;3.88;;
72439;SDS011;60446;50.752;4.352;2023-10-08T10:12:03;9.10;;;3.90;;
72439;SDS011;60446;50.752;4.352;2023-10-08T10:14:42;12.77;;;4.13;;
72439;SDS011;60446;50.752;4.352;2023-10-08T10:17:15;11.27;;;4.68;;
72439;SDS011;60446;50.752;4.352;2023-10-08T10:20:08;10.68;;;4.15;;
72439;SDS011;60446;50.752;4.352;2023-10-08T10:22:41;9.13;;;4.30;;
72439;SDS011;60446;50.752;4.352;2023-10-08T10:25:11;12.38;;;4.20;;
72439;SDS011;60446;50.752;4.352;2023-10-08T10:30:25;8.65;;;4.00;;
72439;SDS011;60446;50.752;4.352;2023-10-08T10:32:54;9.52;;;4.40;;
72439;SDS011;60446;50.752;4.352;2023-10-08T10:35:26;11.65;;;5.22;;
72439;SDS011;60446;50.752;4.352;2023-10-08T10:37:54;10.90;;;3.85;;
72439;SDS011;60446;50.752;4.352;2023-10-08T10:40:30;12.57;;;4.20;;
72439;SDS011;60446;50.752;4.352;2023-10-08T10:43:07;12.88;;;3.65;;
72439;SDS011;60446;50.752;4.352;2023-10-08T10:45:42;11.05;;;4.38;;
72439;SDS011;60446;50.752;4.352;2023-10-08T10:48:10;11.98;;;4.57;;
72439;SDS011;60446;50.752;4.352;2023-10-08T10:50:58;14.43;;;5.50;;
72439;SDS011;60446;50.752;4.352;2023-10-08T10:53:32;10.27;;;4.63;;
72439;SDS011;60446;50.752;4.352;2023-10-08T10:56:24;10.07;;;4.10;;
72439;SDS011;60446;50.752;4.352;2023-10-08T10:59:01;10.85;;;4.78;;
72439;SDS011;60446;50.752;4.352;2023-10-08T11:01:46;11.65;;;4.90;;
72439;SDS011;60446;50.752;4.352;2023-10-08T11:04:19;11.07;;;5.40;;
72439;SDS011;60446;50.752;4.352;2023-10-08T11:06:55;11.97;;;4.93;;
72439;SDS011;60446;50.752;4.352;2023-10-08T11:09:25;14.70;;;5.25;;
72439;SDS011;60446;50.752;4.352;2023-10-08T11:12:19;10.90;;;4.85;;
72439;SDS011;60446;50.752;4.352;2023-10-08T11:14:49;11.50;;;4.85;;
72439;SDS011;60446;50.752;4.352;2023-10-08T11:17:24;13.57;;;4.70;;
72439;SDS011;60446;50.752;4.352;2023-10-08T11:19:56;10.83;;;4.80;;
72439;SDS011;60446;50.752;4.352;2023-10-08T11:22:28;13.02;;;4.65;;
72439;SDS011;60446;50.752;4.352;2023-10-08T11:25:24;12.23;;;5.22;;
72439;SDS011;60446;50.752;4.352;2023-10-08T11:27:57;10.82;;;3.90;;
72439;SDS011;60446;50.752;4.352;2023-10-08T11:30:35;10.23;;;4.07;;
72439;SDS011;60446;50.752;4.352;2023-10-08T11:33:03;13.77;;;4.70;;
72439;SDS011;60446;50.752;4.352;2023-10-08T11:35:35;10.05;;;4.18;;
72439;SDS011;60446;50.752;4.352;2023-10-08T11:38:10;14.18;;;4.82;;
72439;SDS011;60446;50.752;4.352;2023-10-08T11:40:48;10.93;;;4.38;;
72439;SDS011;60446;50.752;4.352;2023-10-08T11:43:16;11.15;;;4.50;;
72439;SDS011;60446;50.752;4.352;2023-10-08T11:45:43;11.83;;;4.30;;
72439;SDS011;60446;50.752;4.352;2023-10-08T11:48:17;10.70;;;4.60;;
72439;SDS011;60446;50.752;4.352;2023-10-08T11:50:52;10.40;;;4.22;;
72439;SDS011;60446;50.752;4.352;2023-10-08T11:53:19;10.75;;;4.10;;
72439;SDS011;60446;50.752;4.352;2023-10-08T11:55:46;9.88;;;4.07;;
72439;SDS011;60446;50.752;4.352;2023-10-08T11:58:14;12.47;;;4.07;;
72439;SDS011;60446;50.752;4.352;2023-10-08T12:00:46;11.02;;;4.88;;
72439;SDS011;60446;50.752;4.352;2023-10-08T12:03:19;10.75;;;4.70;;
72439;SDS011;60446;50.752;4.352;2023-10-08T12:05:48;12.65;;;4.07;;
72439;SDS011;60446;50.752;4.352;2023-10-08T12:08:17;10.48;;;4.55;;
72439;SDS011;60446;50.752;4.352;2023-10-08T12:10:49;11.40;;;4.90;;
72439;SDS011;60446;50.752;4.352;2023-10-08T12:13:21;11.60;;;4.57;;
72439;SDS011;60446;50.752;4.352;2023-10-08T12:15:55;10.43;;;4.30;;
72439;SDS011;60446;50.752;4.352;2023-10-08T12:18:39;13.02;;;4.90;;
72439;SDS011;60446;50.752;4.352;2023-10-08T12:21:07;13.38;;;4.53;;
72439;SDS011;60446;50.752;4.352;2023-10-08T12:23:41;10.00;;;4.23;;
72439;SDS011;60446;50.752;4.352;2023-10-08T12:26:16;10.40;;;4.53;;
72439;SDS011;60446;50.752;4.352;2023-10-08T12:28:47;10.32;;;4.63;;
72439;SDS011;60446;50.752;4.352;2023-10-08T12:31:15;10.43;;;4.22;;
72439;SDS011;60446;50.752;4.352;2023-10-08T12:33:48;13.98;;;4.22;;
72439;SDS011;60446;50.752;4.352;2023-10-08T12:36:20;10.77;;;4.10;;
72439;SDS011;60446;50.752;4.352;2023-10-08T12:38:50;12.02;;;4.35;;
72439;SDS011;60446;50.752;4.352;2023-10-08T12:41:27;11.07;;;5.00;;
72439;SDS011;60446;50.752;4.352;2023-10-08T12:43:54;10.90;;;4.65;;
72439;SDS011;60446;50.752;4.352;2023-10-08T12:46:24;9.80;;;4.70;;
72439;SDS011;60446;50.752;4.352;2023-10-08T12:48:52;10.83;;;5.30;;
72439;SDS011;60446;50.752;4.352;2023-10-08T12:51:22;11.25;;;4.63;;
72439;SDS011;60446;50.752;4.352;2023-10-08T12:53:52;9.27;;;4.22;;
72439;SDS011;60446;50.752;4.352;2023-10-08T12:56:30;10.25;;;4.20;;
72439;SDS011;60446;50.752;4.352;2023-10-08T12:58:58;13.15;;;3.90;;
72439;SDS011;60446;50.752;4.352;2023-10-08T13:01:25;16.03;;;5.70;;
72439;SDS011;60446;50.752;4.352;2023-10-08T13:03:55;11.88;;;4.55;;
72439;SDS011;60446;50.752;4.352;2023-10-08T13:06:34;11.30;;;4.40;;
72439;SDS011;60446;50.752;4.352;2023-10-08T13:09:05;10.82;;;4.57;;
72439;SDS011;60446;50.752;4.352;2023-10-08T13:11:39;9.95;;;4.28;;
72439;SDS011;60446;50.752;4.352;2023-10-08T13:14:07;9.50;;;4.20;;
72439;SDS011;60446;50.752;4.352;2023-10-08T13:16:34;12.32;;;4.22;;
72439;SDS011;60446;50.752;4.352;2023-10-08T13:19:04;10.52;;;4.55;;
72439;SDS011;60446;50.752;4.352;2023-10-08T13:21:34;9.85;;;4.72;;
72439;SDS011;60446;50.752;4.352;2023-10-08T13:24:03;11.55;;;4.85;;
72439;SDS011;60446;50.752;4.352;2023-10-08T13:26:36;10.50;;;4.80;;
72439;SDS011;60446;50.752;4.352;2023-10-08T13:29:05;13.45;;;4.53;;
72439;SDS011;60446;50.752;4.352;2023-10-08T13:31:33;10.85;;;4.70;;
72439;SDS011;60446;50.752;4.352;2023-10-08T13:34:04;10.63;;;4.20;;
72439;SDS011;60446;50.752;4.352;2023-10-08T13:36:36;9.07;;;4.35;;
72439;SDS011;60446;50.752;4.352;2023-10-08T13:39:06;11.37;;;4.73;;
72439;SDS011;60446;50.752;4.352;2023-10-08T13:41:37;12.23;;;5.28;;
72439;SDS011;60446;50.752;4.352;2023-10-08T13:44:08;10.07;;;4.57;;
72439;SDS011;60446;50.752;4.352;2023-10-08T13:46:35;10.45;;;4.03;;
72439;SDS011;60446;50.752;4.352;2023-10-08T13:49:03;9.43;;;4.30;;
72439;SDS011;60446;50.752;4.352;2023-10-08T13:51:32;10.07;;;4.33;;
72439;SDS011;60446;50.752;4.352;2023-10-08T13:54:02;12.85;;;5.15;;
72439;SDS011;60446;50.752;4.352;2023-10-08T13:56:33;11.75;;;4.75;;
72439;SDS011;60446;50.752;4.352;2023-10-08T13:59:04;10.50;;;4.40;;
72439;SDS011;60446;50.752;4.352;2023-10-08T14:01:41;9.95;;;4.70;;
72439;SDS011;60446;50.752;4.352;2023-10-08T14:04:15;9.83;;;4.20;;
72439;SDS011;60446;50.752;4.352;2023-10-08T14:06:46;10.52;;;4.07;;
72439;SDS011;60446;50.752;4.352;2023-10-08T14:09:22;13.65;;;4.07;;
72439;SDS011;60446;50.752;4.352;2023-10-08T14:11:58;11.18;;;3.92;;
72439;SDS011;60446;50.752;4.352;2023-10-08T14:14:27;9.43;;;3.95;;
72439;SDS011;60446;50.752;4.352;2023-10-08T14:17:00;8.57;;;4.10;;
72439;SDS011;60446;50.752;4.352;2023-10-08T14:19:37;10.82;;;3.95;;
72439;SDS011;60446;50.752;4.352;2023-10-08T14:22:18;9.00;;;3.67;;
72439;SDS011;60446;50.752;4.352;2023-10-08T14:24:49;8.90;;;4.30;;
72439;SDS011;60446;50.752;4.352;2023-10-08T14:27:28;8.73;;;3.63;;
72439;SDS011;60446;50.752;4.352;2023-10-08T14:30:00;9.80;;;4.33;;
72439;SDS011;60446;50.752;4.352;2023-10-08T14:32:28;12.18;;;4.45;;
72439;SDS011;60446;50.752;4.352;2023-10-08T14:34:55;8.80;;;4.38;;
72439;SDS011;60446;50.752;4.352;2023-10-08T14:37:22;9.25;;;4.20;;
72439;SDS011;60446;50.752;4.352;2023-10-08T14:40:08;9.82;;;3.88;;
72439;SDS011;60446;50.752;4.352;2023-10-08T14:42:55;9.87;;;4.07;;
72439;SDS011;60446;50.752;4.352;2023-10-08T14:45:26;9.52;;;4.18;;
72439;SDS011;60446;50.752;4.352;2023-10-08T14:47:58;9.10;;;4.25;;
72439;SDS011;60446;50.752;4.352;2023-10-08T14:50:26;9.68;;;3.92;;
72439;SDS011;60446;50.752;4.352;2023-10-08T14:52:54;10.20;;;4.28;;
72439;SDS011;60446;50.752;4.352;2023-10-08T14:55:22;8.83;;;4.70;;
72439;SDS011;60446;50.752;4.352;2023-10-08T14:57:50;10.35;;;3.75;;
72439;SDS011;60446;50.752;4.352;2023-10-08T15:00:20;8.18;;;4.13;;
72439;SDS011;60446;50.752;4.352;2023-10-08T15:02:54;7.75;;;4.63;;
72439;SDS011;60446;50.752;4.352;2023-10-08T15:05:22;9.30;;;4.32;;
72439;SDS011;60446;50.752;4.352;2023-10-08T15:07:50;10.50;;;4.07;;
72439;SDS011;60446;50.752;4.352;2023-10-08T15:10:18;10.43;;;4.38;;
72439;SDS011;60446;50.752;4.352;2023-10-08T15:12:48;13.05;;;4.22;;
72439;SDS011;60446;50.752;4.352;2023-10-08T15:15:18;8.55;;;4.38;;
72439;SDS011;60446;50.752;4.352;2023-10-08T15:17:46;8.82;;;3.90;;
72439;SDS011;60446;50.752;4.352;2023-10-08T15:20:16;9.63;;;3.77;;